Time;durP1;ratioP1;P1;durP2;ratioP2;P2;SDS_P1;SDS_P2;PMS_P1;PMS_P2;Temp;Humidity;BMP_temperature;BMP_pressure;BME280_temperature;BME280_humidity;BME280_pressure;Samples;Min_cycle;Max_cycle;Signal;HPM_P1;HPM_P2
2023/12/13 00:01:27;;;;;;;12.07;9.65;;;15.30;85.20;;;;;;4183706;28;19930;-59
2023/12/13 00:04:08;;;;;;;13.82;9.55;;;15.40;85.40;;;;;;4188011;28;20075;-59
2023/12/13 00:06:50;;;;;;;12.13;9.32;;;15.40;85.00;;;;;;4187786;28;20126;-59
2023/12/13 00:09:30;;;;;;;11.20;9.10;;;15.50;84.70;;;;;;4187029;28;20055;-59
2023/12/13 00:12:12;;;;;;;12.20;9.63;;;15.50;84.60;;;;;;4188473;28;20063;-59
2023/12/13 00:14:53;;;;;;;10.75;9.30;;;15.60;84.50;;;;;;4186193;28;20404;-59
2023/12/13 00:17:35;;;;;;;12.45;9.90;;;15.60;84.30;;;;;;4179095;28;20423;-59
2023/12/13 00:20:16;;;;;;;11.60;9.65;;;15.70;84.90;;;;;;4163114;28;20396;-59
2023/12/13 00:22:57;;;;;;;10.75;9.75;;;15.70;83.90;;;;;;4155131;28;20069;-59
2023/12/13 00:25:39;;;;;;;11.55;8.95;;;15.70;83.80;;;;;;4171131;28;20078;-59
2023/12/13 00:28:20;;;;;;;10.50;9.10;;;15.70;83.80;;;;;;4177566;28;20060;-59
2023/12/13 00:31:01;;;;;;;11.43;8.43;;;15.80;83.70;;;;;;4180575;28;20056;-59
2023/12/13 00:33:43;;;;;;;10.90;7.72;;;15.80;83.50;;;;;;4185153;28;20494;-59
2023/12/13 00:36:24;;;;;;;10.63;8.43;;;15.80;83.60;;;;;;4186733;28;20628;-59
2023/12/13 00:39:06;;;;;;;9.73;8.25;;;15.80;83.60;;;;;;4170199;28;20055;-59
2023/12/13 00:41:46;;;;;;;10.48;8.23;;;15.80;83.40;;;;;;4166808;28;20060;-59
2023/12/13 00:44:28;;;;;;;8.88;7.13;;;15.80;83.40;;;;;;4180070;28;20081;-59
2023/12/13 00:47:09;;;;;;;8.40;7.43;;;15.80;83.30;;;;;;4187544;28;20055;-59
2023/12/13 00:49:52;;;;;;;6.95;6.28;;;15.80;83.60;;;;;;4163925;28;20094;-59
2023/12/13 00:52:34;;;;;;;9.02;7.07;;;15.80;83.60;;;;;;4187227;28;20048;-59
2023/12/13 00:55:15;;;;;;;9.30;7.05;;;15.80;83.50;;;;;;4187237;28;20043;-60
2023/12/13 00:57:55;;;;;;;7.97;7.18;;;15.90;83.50;;;;;;4184208;28;20508;-58
2023/12/13 01:00:37;;;;;;;10.65;8.43;;;15.80;83.60;;;;;;4177743;28;20437;-58
2023/12/13 01:03:18;;;;;;;8.02;7.22;;;15.90;83.80;;;;;;4187496;28;20071;-59
2023/12/13 01:06:01;;;;;;;9.73;8.30;;;15.90;83.70;;;;;;4187695;28;20067;-58
2023/12/13 01:08:42;;;;;;;10.65;8.45;;;15.90;83.40;;;;;;4175543;28;20130;-58
2023/12/13 01:11:24;;;;;;;9.98;8.65;;;15.90;84.30;;;;;;4170770;28;20474;-58
2023/12/13 01:14:05;;;;;;;10.90;8.93;;;15.90;83.40;;;;;;4193273;28;20060;-59
2023/12/13 01:16:46;;;;;;;12.88;10.05;;;15.90;83.30;;;;;;4170747;28;20182;-58
2023/12/13 01:19:27;;;;;;;13.85;10.85;;;16.00;83.20;;;;;;4168544;28;20068;-58
2023/12/13 01:22:10;;;;;;;12.93;10.88;;;16.00;83.10;;;;;;4177459;28;20105;-58
2023/12/13 01:24:51;;;;;;;14.93;10.18;;;15.90;83.10;;;;;;4185627;28;20063;-58
2023/12/13 01:27:31;;;;;;;14.07;10.52;;;15.90;83.20;;;;;;4186384;28;20059;-58
2023/12/13 01:30:13;;;;;;;12.90;10.52;;;15.90;84.20;;;;;;4186563;28;20496;-58
2023/12/13 01:32:54;;;;;;;;;;;15.80;83.60;;;;;;4187627;28;20059;-58
2023/12/13 01:35:35;;;;;;;11.40;9.85;;;15.80;83.90;;;;;;4186020;28;19927;-58
2023/12/13 01:38:17;;;;;;;12.48;10.57;;;15.80;83.90;;;;;;4184986;28;20101;-58
2023/12/13 01:40:58;;;;;;;12.85;11.20;;;15.90;83.70;;;;;;4186701;28;20414;-59
2023/12/13 01:43:49;;;;;;;13.93;10.70;;;15.90;83.60;;;;;;4186685;28;20051;-59
2023/12/13 01:46:31;;;;;;;13.35;10.55;;;15.90;83.50;;;;;;4186058;28;20190;-60
2023/12/13 01:49:12;;;;;;;11.02;9.75;;;16.00;83.50;;;;;;4153375;28;20107;-59
2023/12/13 01:51:54;;;;;;;10.90;9.77;;;16.00;84.10;;;;;;4186045;28;20125;-59
2023/12/13 01:54:37;;;;;;;11.73;10.18;;;16.00;83.10;;;;;;4168791;28;20159;-59
2023/12/13 01:57:19;;;;;;;11.82;9.60;;;16.00;82.90;;;;;;4183065;28;20064;-59
2023/12/13 02:00:00;;;;;;;10.77;9.68;;;16.00;83.00;;;;;;4184532;28;20063;-59
2023/12/13 02:02:42;;;;;;;12.52;9.73;;;16.00;83.20;;;;;;4170645;28;20495;-58
2023/12/13 02:05:26;;;;;;;10.90;9.20;;;15.90;83.40;;;;;;4186993;28;20452;-59
2023/12/13 02:08:07;;;;;;;11.48;10.27;;;16.00;83.50;;;;;;4163820;28;20608;-59
2023/12/13 02:10:50;;;;;;;9.93;8.88;;;16.00;83.40;;;;;;4177914;28;20391;-58
2023/12/13 02:13:32;;;;;;;12.98;10.35;;;16.00;83.10;;;;;;4170358;28;20435;-58
2023/12/13 02:16:13;;;;;;;;;;;16.00;83.10;;;;;;4154933;28;20068;-58
2023/12/13 02:18:54;;;;;;;12.45;10.30;;;16.00;83.20;;;;;;4176790;28;19935;-58
2023/12/13 02:21:35;;;;;;;10.57;9.48;;;15.90;83.50;;;;;;4187149;28;20043;-58
2023/12/13 02:24:21;;;;;;;13.25;10.88;;;15.90;83.70;;;;;;4187040;28;20071;-58
2023/12/13 02:27:02;;;;;;;13.10;10.27;;;16.00;83.90;;;;;;4178021;28;20119;-59
2023/12/13 02:29:47;;;;;;;13.27;10.85;;;16.00;83.60;;;;;;4169511;28;20059;-59
2023/12/13 02:32:28;;;;;;;12.40;10.27;;;16.00;83.40;;;;;;4169788;28;20391;-59
2023/12/13 02:35:09;;;;;;;13.65;10.80;;;16.00;83.10;;;;;;4169895;28;20060;-59
2023/12/13 02:37:50;;;;;;;13.57;10.98;;;16.00;83.20;;;;;;4154973;28;20409;-59
2023/12/13 02:40:33;;;;;;;13.75;11.93;;;16.00;83.30;;;;;;4173729;28;20590;-59
2023/12/13 02:43:14;;;;;;;13.73;11.68;;;16.00;83.50;;;;;;4186481;28;20079;-59
2023/12/13 02:45:54;;;;;;;17.70;12.98;;;16.00;83.50;;;;;;4186186;28;20056;-60
2023/12/13 02:48:35;;;;;;;13.68;12.25;;;16.10;83.50;;;;;;4186346;28;20071;-59
2023/12/13 02:51:17;;;;;;;16.05;12.82;;;16.10;83.30;;;;;;4185032;28;20059;-59
2023/12/13 02:53:58;;;;;;;14.95;12.43;;;16.10;83.20;;;;;;4170040;28;20192;-58
2023/12/13 02:56:40;;;;;;;16.67;12.95;;;16.00;83.20;;;;;;4170300;28;20159;-59
2023/12/13 02:59:21;;;;;;;15.55;12.82;;;16.10;83.20;;;;;;4170071;28;20048;-59
2023/12/13 03:02:02;;;;;;;16.55;12.82;;;16.00;83.30;;;;;;4179890;28;20051;-60
2023/12/13 03:04:43;;;;;;;17.33;12.88;;;16.00;83.50;;;;;;4169732;28;20052;-59
2023/12/13 03:07:24;;;;;;;17.73;12.35;;;16.00;83.60;;;;;;4162786;28;20057;-59
2023/12/13 03:10:06;;;;;;;15.50;12.38;;;16.10;84.40;;;;;;4183308;28;20067;-60
2023/12/13 03:12:48;;;;;;;17.30;13.30;;;16.10;83.20;;;;;;4188955;28;20114;-60
2023/12/13 03:15:29;;;;;;;19.30;14.18;;;16.00;83.10;;;;;;4189279;28;20047;-59
2023/12/13 03:18:10;;;;;;;15.85;14.10;;;16.00;83.20;;;;;;4172491;28;20056;-59
2023/12/13 03:20:51;;;;;;;17.30;13.25;;;16.00;83.60;;;;;;4184699;28;20056;-59
2023/12/13 03:23:32;;;;;;;;;;;16.00;83.60;;;;;;4172806;28;20520;-59
2023/12/13 03:26:13;;;;;;;19.15;13.32;;;16.10;83.70;;;;;;4168223;28;19928;-59
2023/12/13 03:28:56;;;;;;;16.13;13.82;;;16.10;83.30;;;;;;4176370;28;20056;-59
2023/12/13 03:31:37;;;;;;;14.55;12.90;;;16.20;83.20;;;;;;4172137;28;20130;-59
2023/12/13 03:34:18;;;;;;;16.98;12.80;;;16.20;83.00;;;;;;4187692;28;20051;-59
2023/12/13 03:36:59;;;;;;;16.98;13.43;;;16.20;82.90;;;;;;4188822;28;20063;-59
2023/12/13 03:39:40;;;;;;;14.32;12.75;;;16.20;82.70;;;;;;4172249;28;20044;-59
2023/12/13 03:42:21;;;;;;;14.35;12.40;;;16.20;82.70;;;;;;4168740;28;20128;-59
2023/12/13 03:45:03;;;;;;;17.77;13.85;;;16.10;82.70;;;;;;4172105;28;20082;-59
2023/12/13 03:47:45;;;;;;;15.52;12.48;;;16.10;83.90;;;;;;4170910;28;20116;-59
2023/12/13 03:50:26;;;;;;;;;;;16.10;83.30;;;;;;4187321;28;20056;-58
2023/12/13 03:53:07;;;;;;;15.50;12.85;;;16.20;83.30;;;;;;4188173;28;19931;-59
2023/12/13 03:55:48;;;;;;;15.75;12.63;;;16.20;83.20;;;;;;4168106;28;20056;-59
2023/12/13 03:58:29;;;;;;;16.50;12.55;;;16.20;83.00;;;;;;4156579;28;20499;-59
2023/12/13 04:01:12;;;;;;;18.50;13.18;;;16.10;83.00;;;;;;4172917;28;20178;-59
2023/12/13 04:03:53;;;;;;;15.48;12.40;;;16.10;83.10;;;;;;4188340;28;20082;-59
2023/12/13 04:06:34;;;;;;;15.68;11.75;;;16.10;83.30;;;;;;4165158;28;20488;-59
2023/12/13 04:09:15;;;;;;;15.25;11.95;;;16.20;83.50;;;;;;4175630;28;20407;-59
2023/12/13 04:11:57;;;;;;;24.55;11.90;;;16.20;83.30;;;;;;4181565;28;20063;-59
2023/12/13 04:14:37;;;;;;;;;;;16.20;83.20;;;;;;4187862;28;20051;-59
2023/12/13 04:17:20;;;;;;;15.00;10.98;;;16.20;83.10;;;;;;4181044;28;19931;-59
2023/12/13 04:20:00;;;;;;;15.10;11.93;;;16.20;83.10;;;;;;4187633;28;20083;-59
2023/12/13 04:22:42;;;;;;;12.57;10.25;;;16.20;83.10;;;;;;4160036;28;20137;-59
2023/12/13 04:25:23;;;;;;;14.35;11.63;;;16.20;83.40;;;;;;4184756;28;20056;-59
2023/12/13 04:28:04;;;;;;;14.77;11.05;;;16.10;83.40;;;;;;4155282;28;20059;-59
2023/12/13 04:30:45;;;;;;;;;;;16.20;83.40;;;;;;4165167;28;20056;-59
2023/12/13 04:33:27;;;;;;;17.10;12.55;;;16.20;83.20;;;;;;4182157;28;19939;-59
2023/12/13 04:36:09;;;;;;;15.13;11.20;;;16.20;83.10;;;;;;4187064;28;20515;-59
2023/12/13 04:38:50;;;;;;;13.60;11.25;;;16.30;83.00;;;;;;4171711;28;20060;-59
2023/12/13 04:41:32;;;;;;;10.60;9.35;;;16.20;82.80;;;;;;4180814;28;20070;-59
2023/12/13 04:44:13;;;;;;;12.35;10.45;;;16.20;82.90;;;;;;4187867;28;20048;-59
2023/12/13 04:46:55;;;;;;;11.98;10.52;;;16.20;83.70;;;;;;4156712;28;20048;-59
2023/12/13 04:49:38;;;;;;;13.15;10.98;;;16.20;82.80;;;;;;4185083;28;20050;-59
2023/12/13 04:52:19;;;;;;;12.75;9.57;;;16.20;82.70;;;;;;4178576;28;20709;-59
2023/12/13 04:55:00;;;;;;;12.80;10.75;;;16.20;83.60;;;;;;4187183;28;20067;-59
2023/12/13 04:57:41;;;;;;;11.15;9.65;;;16.20;82.90;;;;;;4184301;28;20051;-59
2023/12/13 05:00:22;;;;;;;14.82;11.10;;;16.20;83.10;;;;;;4190194;28;20059;-59
2023/12/13 05:03:03;;;;;;;10.85;9.02;;;16.20;83.20;;;;;;4187811;28;20067;-59
2023/12/13 05:05:45;;;;;;;11.80;9.95;;;16.30;84.00;;;;;;4180307;28;20182;-59
2023/12/13 05:08:29;;;;;;;10.85;9.50;;;16.30;82.90;;;;;;4174000;28;20522;-59
2023/12/13 05:11:10;;;;;;;14.52;10.52;;;16.20;82.70;;;;;;4187098;28;20087;-59
2023/12/13 05:13:51;;;;;;;11.23;9.40;;;16.30;82.70;;;;;;4187635;28;20178;-59
2023/12/13 05:16:32;;;;;;;12.27;9.82;;;16.30;83.80;;;;;;4185922;28;20052;-58
2023/12/13 05:19:13;;;;;;;11.18;9.65;;;16.20;82.90;;;;;;4185556;28;20052;-59
2023/12/13 05:21:55;;;;;;;13.57;10.38;;;16.20;82.90;;;;;;4185803;28;20043;-58
2023/12/13 05:24:37;;;;;;;11.77;9.35;;;16.30;83.00;;;;;;4161293;28;20079;-59
2023/12/13 05:27:18;;;;;;;11.52;9.70;;;16.30;82.60;;;;;;4170399;28;20055;-59
2023/12/13 05:29:59;;;;;;;9.10;8.18;;;16.20;82.50;;;;;;4170009;28;20059;-58
2023/12/13 05:32:40;;;;;;;10.48;8.98;;;16.20;82.50;;;;;;4175170;28;20051;-59
2023/12/13 05:35:21;;;;;;;10.70;9.07;;;16.20;82.80;;;;;;4185751;28;20063;-59
2023/12/13 05:38:03;;;;;;;11.80;8.77;;;16.20;83.20;;;;;;4187020;28;20066;-59
2023/12/13 05:40:44;;;;;;;9.50;8.55;;;16.20;83.20;;;;;;4184678;28;20063;-58
2023/12/13 05:43:25;;;;;;;10.65;8.80;;;16.30;83.00;;;;;;4172849;28;20060;-60
2023/12/13 05:46:07;;;;;;;12.65;8.52;;;16.30;82.70;;;;;;4169959;28;20056;-59
2023/12/13 05:48:49;;;;;;;9.88;8.45;;;16.30;82.80;;;;;;4170327;28;20507;-59
2023/12/13 05:51:30;;;;;;;9.98;8.13;;;16.30;83.10;;;;;;4169381;28;20507;-59
2023/12/13 05:54:12;;;;;;;10.90;8.02;;;16.30;83.00;;;;;;4171020;28;20052;-59
2023/12/13 05:56:53;;;;;;;9.35;8.30;;;16.40;82.90;;;;;;4153790;28;20507;-60
2023/12/13 05:59:34;;;;;;;9.52;7.97;;;16.40;82.80;;;;;;4163697;28;20052;-59
2023/12/13 06:02:15;;;;;;;9.57;7.72;;;16.40;82.70;;;;;;4180539;28;20052;-59
2023/12/13 06:04:56;;;;;;;10.77;8.05;;;16.50;82.60;;;;;;4184567;28;20089;-59
2023/12/13 06:07:40;;;;;;;10.23;8.63;;;16.40;82.40;;;;;;4185955;28;20392;-58
2023/12/13 06:10:22;;;;;;;10.13;9.05;;;16.40;82.30;;;;;;4185329;28;20113;-59
2023/12/13 06:13:03;;;;;;;9.68;8.65;;;16.40;82.30;;;;;;4156089;28;20146;-59
2023/12/13 06:15:45;;;;;;;9.77;8.40;;;16.30;82.30;;;;;;4167642;28;20101;-59
2023/12/13 06:18:26;;;;;;;8.73;7.90;;;16.30;82.60;;;;;;4155347;28;20044;-59
2023/12/13 06:21:08;;;;;;;9.77;8.40;;;16.30;83.10;;;;;;4174904;28;20420;-59
2023/12/13 06:23:49;;;;;;;9.57;8.13;;;16.30;83.20;;;;;;4151182;28;20044;-59
2023/12/13 06:26:31;;;;;;;9.17;7.97;;;16.30;83.10;;;;;;4151796;28;20103;-59
2023/12/13 06:29:12;;;;;;;10.00;8.93;;;16.30;83.00;;;;;;4151913;28;20072;-59
2023/12/13 06:31:54;;;;;;;9.60;8.27;;;16.30;82.80;;;;;;4178539;28;20056;-59
2023/12/13 06:34:35;;;;;;;14.07;9.95;;;16.30;83.20;;;;;;4185464;28;20051;-59
2023/12/13 06:37:16;;;;;;;10.52;9.52;;;16.40;83.30;;;;;;4179535;28;20175;-58
2023/12/13 06:39:57;;;;;;;10.77;9.30;;;16.40;82.90;;;;;;4163023;28;20092;-58
2023/12/13 06:42:39;;;;;;;10.47;9.20;;;16.50;82.50;;;;;;4171838;28;20057;-59
2023/12/13 06:45:21;;;;;;;10.30;9.25;;;16.50;82.00;;;;;;4171427;28;20178;-59
2023/12/13 06:48:02;;;;;;;12.00;9.65;;;16.50;81.80;;;;;;4196296;28;20059;-59
2023/12/13 06:50:45;;;;;;;12.02;9.82;;;16.50;81.80;;;;;;4176677;28;20059;-59
2023/12/13 06:53:26;;;;;;;10.80;9.60;;;16.50;82.10;;;;;;4185204;28;20052;-59
2023/12/13 06:56:08;;;;;;;11.30;10.13;;;16.40;81.90;;;;;;4166946;28;20059;-59
2023/12/13 06:58:50;;;;;;;14.10;10.13;;;16.50;81.80;;;;;;4162475;28;20052;-59
2023/12/13 07:01:32;;;;;;;12.43;9.85;;;16.50;81.70;;;;;;4188690;28;20514;-59
2023/12/13 07:04:13;;;;;;;10.23;9.15;;;16.40;81.70;;;;;;4187904;28;20087;-59
2023/12/13 07:06:54;;;;;;;11.18;9.95;;;16.40;81.80;;;;;;4184581;28;20072;-59
2023/12/13 07:09:35;;;;;;;12.38;9.27;;;16.40;82.30;;;;;;4155401;28;20504;-59
2023/12/13 07:12:16;;;;;;;11.50;8.90;;;16.40;82.20;;;;;;4172384;28;20056;-59
2023/12/13 07:14:58;;;;;;;11.32;10.02;;;16.40;82.20;;;;;;4170657;28;20512;-59
2023/12/13 07:17:42;;;;;;;11.63;10.32;;;16.40;81.90;;;;;;4188938;28;20063;-59
2023/12/13 07:20:23;;;;;;;12.15;10.32;;;16.40;81.80;;;;;;4179284;28;20404;-59
2023/12/13 07:23:05;;;;;;;11.32;9.70;;;16.40;81.70;;;;;;4169188;28;20052;-59
2023/12/13 07:25:46;;;;;;;12.93;10.13;;;16.40;81.80;;;;;;4151673;28;20242;-58
2023/12/13 07:28:27;;;;;;;11.53;10.27;;;16.30;81.90;;;;;;4184865;28;20514;-59
2023/12/13 07:31:09;;;;;;;13.90;10.80;;;16.40;83.00;;;;;;4187974;28;20191;-59
2023/12/13 07:33:50;;;;;;;12.15;9.88;;;16.40;82.10;;;;;;4172037;28;20098;-58
2023/12/13 07:36:31;;;;;;;12.23;10.73;;;16.40;81.80;;;;;;4170568;28;20059;-58
2023/12/13 07:39:12;;;;;;;11.65;10.27;;;16.40;81.70;;;;;;4172814;28;20049;-59
2023/12/13 07:41:53;;;;;;;14.93;10.65;;;16.40;81.60;;;;;;4188093;28;20190;-59
2023/12/13 07:44:34;;;;;;;12.00;10.23;;;16.30;81.70;;;;;;4176934;28;20091;-58
2023/12/13 07:47:17;;;;;;;12.63;10.70;;;16.30;81.90;;;;;;4184940;28;20082;-59
2023/12/13 07:49:58;;;;;;;13.30;11.45;;;16.30;82.20;;;;;;4163671;28;20057;-59
2023/12/13 07:52:39;;;;;;;12.43;10.38;;;16.20;82.10;;;;;;4171482;28;20060;-59
2023/12/13 07:55:20;;;;;;;13.02;10.85;;;16.20;81.70;;;;;;4155704;28;20107;-60
2023/12/13 07:58:01;;;;;;;11.45;10.25;;;16.20;81.50;;;;;;4167142;28;20062;-60
2023/12/13 08:00:42;;;;;;;12.07;10.77;;;16.20;81.70;;;;;;4166985;28;20502;-60
2023/12/13 08:03:24;;;;;;;11.20;10.10;;;16.20;81.50;;;;;;4169002;28;20090;-60
2023/12/13 08:06:11;;;;;;;11.73;10.43;;;16.20;81.20;;;;;;4179952;28;20059;-60
2023/12/13 08:08:53;;;;;;;12.75;11.45;;;16.20;81.20;;;;;;4174032;28;20503;-60
2023/12/13 08:11:34;;;;;;;12.88;10.32;;;16.20;81.50;;;;;;4170429;28;20071;-60
2023/12/13 08:14:15;;;;;;;12.20;10.60;;;16.30;81.40;;;;;;4171360;28;20114;-59
2023/12/13 08:16:56;;;;;;;11.88;10.60;;;16.40;81.10;;;;;;4179358;28;20059;-60
2023/12/13 08:19:38;;;;;;;14.52;11.30;;;16.40;80.70;;;;;;4167555;28;20345;-60
2023/12/13 08:22:19;;;;;;;12.23;10.23;;;16.40;80.40;;;;;;4168621;28;20175;-60
2023/12/13 08:25:01;;;;;;;12.68;11.23;;;16.40;80.30;;;;;;4170944;28;20526;-60
2023/12/13 08:27:42;;;;;;;11.45;10.25;;;16.40;80.30;;;;;;4168891;28;20146;-61
2023/12/13 08:30:24;;;;;;;15.75;10.88;;;16.30;80.70;;;;;;4168682;28;20083;-65
2023/12/13 08:33:04;;;;;;;14.35;10.80;;;16.30;81.70;;;;;;4170189;28;20388;-54
2023/12/13 08:35:55;;;;;;;13.57;10.77;;;16.20;82.30;;;;;;4173381;28;20060;-51
2023/12/13 08:38:36;;;;;;;14.32;11.85;;;16.30;82.80;;;;;;4164174;28;20117;-60
2023/12/13 08:41:18;;;;;;;12.30;11.00;;;16.30;82.60;;;;;;4182642;28;20418;-59
2023/12/13 08:43:59;;;;;;;12.30;11.00;;;16.30;82.60;;;;;;4178963;28;20561;-59
2023/12/13 08:46:40;;;;;;;14.07;12.23;;;16.40;82.50;;;;;;4167197;28;20063;-58
2023/12/13 08:49:21;;;;;;;13.57;11.63;;;16.40;82.50;;;;;;4179930;28;20537;-54
2023/12/13 08:52:04;;;;;;;14.82;11.85;;;16.40;83.40;;;;;;4181949;28;20406;-53
2023/12/13 08:54:46;;;;;;;13.70;11.48;;;16.40;82.70;;;;;;4181842;28;20055;-59
2023/12/13 08:57:27;;;;;;;13.13;11.07;;;16.40;82.80;;;;;;4184207;28;20059;-59
2023/12/13 09:00:09;;;;;;;14.07;11.63;;;16.40;82.90;;;;;;4171723;28;20063;-59
2023/12/13 09:02:51;;;;;;;14.15;12.00;;;16.40;82.80;;;;;;4180728;28;20127;-60
2023/12/13 09:05:33;;;;;;;13.25;11.40;;;16.40;82.80;;;;;;4177943;28;20051;-59
2023/12/13 09:08:15;;;;;;;11.88;10.60;;;16.40;82.90;;;;;;4171610;28;20056;-59
2023/12/13 09:10:56;;;;;;;15.93;10.57;;;16.30;83.00;;;;;;4166325;28;20129;-59
2023/12/13 09:13:37;;;;;;;13.52;10.75;;;16.30;83.00;;;;;;4187085;28;20051;-60
2023/12/13 09:16:18;;;;;;;14.70;11.43;;;16.30;83.00;;;;;;4174920;28;20071;-59
2023/12/13 09:19:00;;;;;;;15.93;11.30;;;16.30;82.90;;;;;;4187392;28;20181;-59
2023/12/13 09:21:41;;;;;;;19.20;12.25;;;16.30;83.10;;;;;;4174507;28;20411;-59
2023/12/13 09:24:24;;;;;;;15.93;11.15;;;16.20;82.90;;;;;;4172589;28;20090;-59
2023/12/13 09:27:05;;;;;;;15.13;11.20;;;16.20;82.90;;;;;;4148637;28;20192;-60
2023/12/13 09:29:46;;;;;;;13.77;11.52;;;16.10;83.00;;;;;;4170780;28;20191;-60
2023/12/13 09:32:27;;;;;;;13.43;11.07;;;16.10;84.20;;;;;;4168212;28;20132;-59
2023/12/13 09:35:09;;;;;;;15.85;12.45;;;16.10;83.60;;;;;;4152010;28;20467;-59
2023/12/13 09:37:51;;;;;;;14.38;11.55;;;16.10;83.80;;;;;;4169064;28;20052;-59
2023/12/13 09:40:34;;;;;;;12.32;10.75;;;16.10;83.70;;;;;;4168265;28;20141;-59
2023/12/13 09:43:15;;;;;;;14.45;11.68;;;16.20;83.70;;;;;;4170744;28;20063;-59
2023/12/13 09:45:57;;;;;;;;;;;16.10;83.40;;;;;;4185479;28;20059;-59
2023/12/13 09:48:39;;;;;;;14.77;10.70;;;16.10;82.40;;;;;;4184003;28;20016;-58
2023/12/13 09:51:24;;;;;;;14.52;11.60;;;16.10;81.90;;;;;;4184292;28;20479;-58
2023/12/13 09:54:07;;;;;;;16.38;12.40;;;16.00;82.50;;;;;;4168428;28;20132;-58
2023/12/13 09:56:50;;;;;;;14.55;11.93;;;16.00;83.80;;;;;;4193615;28;20170;-58
2023/12/13 09:59:32;;;;;;;14.05;11.43;;;16.00;83.00;;;;;;4171095;28;20550;-58
2023/12/13 10:02:16;;;;;;;15.57;12.05;;;16.00;83.10;;;;;;4179684;28;20104;-58
2023/12/13 10:05:00;;;;;;;14.13;11.93;;;16.00;83.10;;;;;;4162298;28;20048;-58
2023/12/13 10:07:41;;;;;;;13.38;11.43;;;16.00;83.30;;;;;;4168731;28;20064;-58
2023/12/13 10:10:23;;;;;;;16.92;12.63;;;16.00;83.50;;;;;;4163025;28;20415;-58
2023/12/13 10:13:07;;;;;;;15.82;12.45;;;16.10;83.60;;;;;;4172729;28;20121;-54
2023/12/13 10:15:49;;;;;;;14.15;11.13;;;16.10;83.40;;;;;;4183079;28;20653;-54
2023/12/13 10:18:31;;;;;;;15.63;11.45;;;16.10;83.30;;;;;;4187538;28;20051;-51
2023/12/13 10:21:12;;;;;;;16.40;11.88;;;16.20;83.20;;;;;;4167035;28;20519;-52
2023/12/13 10:24:06;;;;;;;13.40;11.32;;;16.20;82.90;;;;;;4167924;28;20072;-56
2023/12/13 10:26:47;;;;;;;14.48;11.85;;;16.20;83.00;;;;;;4180601;28;20051;-56
2023/12/13 10:29:29;;;;;;;12.52;11.18;;;16.10;83.20;;;;;;4189825;28;20422;-55
2023/12/13 10:32:11;;;;;;;15.20;12.10;;;16.10;83.40;;;;;;4188395;28;20055;-55
2023/12/13 10:34:52;;;;;;;16.02;12.65;;;16.10;83.70;;;;;;4180215;28;20455;-58
2023/12/13 10:37:35;;;;;;;15.93;12.27;;;16.10;83.80;;;;;;4171451;28;20450;-57
2023/12/13 10:40:17;;;;;;;18.45;12.73;;;16.00;84.00;;;;;;4172796;28;20470;-51
2023/12/13 10:42:59;;;;;;;19.13;12.13;;;16.00;84.50;;;;;;4190201;28;20059;-51
2023/12/13 10:45:47;;;;;;;13.75;10.70;;;16.00;84.70;;;;;;4172131;28;20078;-59
2023/12/13 10:48:34;;;;;;;16.25;11.13;;;16.10;84.60;;;;;;4172533;28;20056;-60
2023/12/13 10:51:18;;;;;;;15.32;11.18;;;16.10;84.50;;;;;;4172647;28;20071;-61
2023/12/13 10:53:59;;;;;;;15.52;12.55;;;16.10;85.10;;;;;;4185864;28;20553;-58
2023/12/13 10:56:42;;;;;;;14.93;11.95;;;16.20;84.50;;;;;;4189705;28;20051;-58
2023/12/13 10:59:25;;;;;;;16.92;12.07;;;16.30;84.30;;;;;;4188484;28;20044;-56
2023/12/13 11:02:08;;;;;;;18.35;13.48;;;16.30;84.00;;;;;;4189664;28;20487;-64
2023/12/13 11:04:50;;;;;;;16.05;11.68;;;16.40;84.10;;;;;;4175563;28;20068;-64
2023/12/13 11:07:31;;;;;;;16.48;12.10;;;16.50;84.00;;;;;;4172815;28;20055;-62
2023/12/13 11:10:13;;;;;;;19.80;13.45;;;16.50;83.90;;;;;;4172508;28;20055;-57
2023/12/13 11:12:55;;;;;;;16.83;12.85;;;16.50;84.40;;;;;;4173642;28;20471;-56
2023/12/13 11:15:43;;;;;;;17.38;13.70;;;16.50;83.40;;;;;;4188738;28;20560;-57
2023/12/13 11:18:26;;;;;;;17.23;12.43;;;16.60;83.30;;;;;;4187060;28;20656;-56
2023/12/13 11:21:07;;;;;;;19.95;12.82;;;16.50;83.10;;;;;;4187648;28;20059;-57
2023/12/13 11:23:49;;;;;;;18.30;13.30;;;16.50;83.50;;;;;;4187534;28;20051;-53
2023/12/13 11:26:39;;;;;;;16.38;11.75;;;16.50;83.90;;;;;;4188532;28;20060;-57
2023/12/13 11:29:22;;;;;;;19.15;13.52;;;16.50;83.80;;;;;;4198774;28;20602;-55
2023/12/13 11:32:05;;;;;;;18.48;12.80;;;16.50;84.70;;;;;;4189238;28;20060;-58
2023/12/13 11:34:48;;;;;;;17.90;12.95;;;16.50;83.40;;;;;;4174853;28;20507;-56
2023/12/13 11:37:29;;;;;;;15.85;12.73;;;16.60;83.50;;;;;;4187248;28;20475;-55
2023/12/13 11:40:11;;;;;;;16.30;13.40;;;16.60;82.90;;;;;;4187424;28;20055;-56
2023/12/13 11:42:52;;;;;;;;;;;16.60;82.90;;;;;;4175610;28;20089;-57
2023/12/13 11:45:32;;;;;;;21.67;13.20;;;16.60;82.80;;;;;;4187752;28;20004;-57
2023/12/13 11:48:14;;;;;;;18.35;15.48;;;16.50;83.10;;;;;;4187235;28;20047;-57
2023/12/13 11:50:56;;;;;;;19.83;14.07;;;16.50;82.70;;;;;;4188109;28;20052;-57
2023/12/13 11:53:37;;;;;;;13.05;10.27;;;16.50;81.90;;;;;;4174781;28;20051;-56
2023/12/13 11:56:21;;;;;;;8.02;7.22;;;16.50;81.40;;;;;;4170819;28;20075;-56
2023/12/13 11:59:02;;;;;;;10.43;8.27;;;16.40;80.80;;;;;;4171493;28;20219;-57
2023/12/13 12:01:44;;;;;;;10.23;8.45;;;16.40;80.80;;;;;;4159216;28;20110;-57
2023/12/13 12:04:25;;;;;;;8.10;6.97;;;16.30;80.60;;;;;;4154769;28;20056;-58
2023/12/13 12:07:13;;;;;;;10.85;8.02;;;16.30;81.10;;;;;;4183974;28;20394;-62
2023/12/13 12:09:55;;;;;;;7.43;6.45;;;16.10;80.90;;;;;;4183978;28;20063;-62
2023/12/13 12:12:36;;;;;;;6.15;5.55;;;16.10;80.70;;;;;;4174298;28;20143;-62
2023/12/13 12:15:19;;;;;;;6.38;5.78;;;16.00;80.80;;;;;;4184721;28;20348;-56
2023/12/13 12:18:02;;;;;;;4.82;4.35;;;15.90;80.80;;;;;;4154159;28;20048;-56
2023/12/13 12:20:44;;;;;;;5.40;4.28;;;15.90;80.80;;;;;;4171023;28;20515;-55
2023/12/13 12:23:30;;;;;;;;;;;15.70;80.60;;;;;;4178740;28;20113;-56
2023/12/13 12:26:11;;;;;;;5.18;4.65;;;15.70;80.20;;;;;;4168356;28;19946;-56
2023/12/13 12:28:53;;;;;;;5.47;4.70;;;15.60;80.90;;;;;;4187453;28;20056;-56
2023/12/13 12:31:34;;;;;;;4.45;4.07;;;15.50;80.60;;;;;;4179792;28;20051;-56
2023/12/13 12:34:15;;;;;;;4.32;3.90;;;15.50;80.70;;;;;;4158118;28;20055;-56
2023/12/13 12:36:56;;;;;;;3.90;3.22;;;15.40;80.60;;;;;;4177699;28;20507;-56
2023/12/13 12:39:38;;;;;;;3.83;3.53;;;15.30;80.80;;;;;;4183467;28;20063;-57
2023/12/13 12:42:20;;;;;;;3.55;3.25;;;15.30;80.00;;;;;;4171788;28;20056;-54
2023/12/13 12:45:01;;;;;;;3.67;3.38;;;15.20;80.80;;;;;;4164797;28;20172;-54
2023/12/13 12:47:42;;;;;;;3.58;3.28;;;15.20;82.80;;;;;;4170362;28;20446;-60
2023/12/13 12:50:23;;;;;;;3.20;3.00;;;15.20;82.80;;;;;;4169728;28;20159;-52
2023/12/13 12:53:04;;;;;;;3.33;3.13;;;15.30;82.10;;;;;;4183708;28;20064;-55
2023/12/13 12:55:46;;;;;;;3.25;3.05;;;15.40;81.80;;;;;;4184081;28;20109;-55
2023/12/13 12:58:27;;;;;;;3.60;3.30;;;15.40;81.30;;;;;;4180280;28;20052;-63
2023/12/13 13:01:08;;;;;;;3.13;2.92;;;15.40;80.90;;;;;;4182097;28;20063;-63
2023/12/13 13:03:50;;;;;;;3.15;2.85;;;15.50;82.10;;;;;;4173388;28;20186;-60
2023/12/13 13:06:32;;;;;;;3.10;2.90;;;15.60;81.00;;;;;;4159087;28;20380;-62
2023/12/13 13:09:14;;;;;;;2.80;2.60;;;15.70;80.30;;;;;;4167296;28;20056;-63
2023/12/13 13:11:56;;;;;;;3.20;2.97;;;15.70;79.50;;;;;;4161028;28;20052;-54
2023/12/13 13:14:39;;;;;;;3.00;2.80;;;15.70;79.90;;;;;;4154572;28;20614;-54
2023/12/13 13:17:21;;;;;;;2.95;2.65;;;15.80;79.90;;;;;;4161971;28;20056;-55
2023/12/13 13:20:12;;;;;;;2.95;2.75;;;15.80;79.50;;;;;;4184932;28;20093;-56
2023/12/13 13:22:54;;;;;;;3.42;3.13;;;15.90;79.30;;;;;;4170784;28;20049;-58
2023/12/13 13:25:43;;;;;;;4.45;4.03;;;15.90;79.10;;;;;;4168996;28;20056;-57
2023/12/13 13:28:26;;;;;;;2.90;2.70;;;15.90;78.50;;;;;;4158250;28;20500;-56
2023/12/13 13:31:07;;;;;;;2.15;1.98;;;15.90;78.80;;;;;;4168678;28;20068;-55
2023/12/13 13:33:49;;;;;;;2.33;2.00;;;15.90;80.30;;;;;;4175663;28;20055;-55
2023/12/13 13:36:30;;;;;;;2.58;2.38;;;16.00;79.70;;;;;;4173752;28;20495;-56
2023/12/13 13:39:13;;;;;;;2.10;2.00;;;16.00;81.10;;;;;;4182028;28;20067;-56
2023/12/13 13:41:54;;;;;;;2.92;2.60;;;16.00;79.70;;;;;;4180159;28;20060;-55
2023/12/13 13:44:38;;;;;;;2.50;2.40;;;16.00;79.60;;;;;;4183799;28;20190;-55
2023/12/13 13:47:19;;;;;;;2.83;2.63;;;16.00;79.80;;;;;;4169248;28;20048;-59
2023/12/13 13:50:00;;;;;;;3.10;2.80;;;16.00;79.50;;;;;;4184681;28;20101;-59